Terminal Aerodrome Forecast
Issued by NWS Grand Rapids, MI

Home | Current Version | Previous Version | Text Only | Print | Product List | Glossary On
Versions: 1 2 3 4 5 6 7 8 9 10 11 12 13 14 15 16 17 18 19 20 21 22 23 24 25 26 27 28 29 30 31 32 33 34
000
FTUS43 KGRR 250118 AAB
TAFGRR
TAF AMD
KGRR 250118Z 2501/2524 25013G20KT 4SM BR OVC004
     FM250400 25010KT P6SM OVC003
     FM250900 25010KT 4SM -SN BR OVC003
     FM251200 27014KT 1 1/2SM -SN BR OVC007
     FM251600 28018G26KT 4SM -SN OVC025
     FM252300 27017G25KT P6SM BKN050=

USA.gov is the U.S. government's official web portal to all federal, state and local government web resources and services.